sensor_id;sensor_type;location;lat;lon;timestamp;pressure;altitude;pressure_sealevel;temperature;humidity
62694;BME280;48759;52.544;13.418;2022-12-18T00:01:04;102597.78;;;-2.36;100.00
62694;BME280;48759;52.544;13.418;2022-12-18T00:03:33;102603.50;;;-2.42;100.00
62694;BME280;48759;52.544;13.418;2022-12-18T00:06:00;102604.28;;;-2.40;100.00
62694;BME280;48759;52.544;13.418;2022-12-18T00:08:26;102610.53;;;-2.39;100.00
62694;BME280;48759;52.544;13.418;2022-12-18T00:10:53;102608.72;;;-2.39;100.00
62694;BME280;48759;52.544;13.418;2022-12-18T00:13:20;102612.78;;;-2.30;100.00
62694;BME280;48759;52.544;13.418;2022-12-18T00:19:06;102622.22;;;-2.39;100.00
62694;BME280;48759;52.544;13.418;2022-12-18T00:21:33;102617.16;;;-2.27;100.00
62694;BME280;48759;52.544;13.418;2022-12-18T00:24:00;102613.66;;;-2.30;100.00
62694;BME280;48759;52.544;13.418;2022-12-18T00:26:28;102617.66;;;-2.19;100.00
62694;BME280;48759;52.544;13.418;2022-12-18T00:28:55;102607.75;;;-2.19;100.00
62694;BME280;48759;52.544;13.418;2022-12-18T00:31:25;102606.59;;;-2.32;100.00
62694;BME280;48759;52.544;13.418;2022-12-18T00:33:53;102617.34;;;-2.13;100.00
62694;BME280;48759;52.544;13.418;2022-12-18T00:36:24;102616.50;;;-2.33;100.00
62694;BME280;48759;52.544;13.418;2022-12-18T00:38:52;102605.72;;;-2.33;100.00
62694;BME280;48759;52.544;13.418;2022-12-18T00:41:19;102604.78;;;-2.32;100.00
62694;BME280;48759;52.544;13.418;2022-12-18T00:44:00;102603.91;;;-2.15;99.15
62694;BME280;48759;52.544;13.418;2022-12-18T00:46:26;102602.59;;;-1.89;96.38
62694;BME280;48759;52.544;13.418;2022-12-18T00:48:53;102597.72;;;-2.00;95.70
62694;BME280;48759;52.544;13.418;2022-12-18T00:51:20;102602.09;;;-1.97;95.88
62694;BME280;48759;52.544;13.418;2022-12-18T00:53:50;102607.81;;;-2.03;97.62
62694;BME280;48759;52.544;13.418;2022-12-18T00:56:16;102593.53;;;-1.88;95.22
62694;BME280;48759;52.544;13.418;2022-12-18T00:58:50;102600.03;;;-1.92;94.53
62694;BME280;48759;52.544;13.418;2022-12-18T01:01:17;102599.16;;;-2.27;96.22
62694;BME280;48759;52.544;13.418;2022-12-18T01:03:44;102601.16;;;-2.13;94.70
62694;BME280;48759;52.544;13.418;2022-12-18T01:06:13;102604.66;;;-2.11;93.00
62694;BME280;48759;52.544;13.418;2022-12-18T01:08:40;102606.13;;;-2.23;94.79
62694;BME280;48759;52.544;13.418;2022-12-18T01:11:09;102613.69;;;-2.12;92.76
62694;BME280;48759;52.544;13.418;2022-12-18T01:13:37;102604.31;;;-2.22;93.74
62694;BME280;48759;52.544;13.418;2022-12-18T01:16:04;102610.97;;;-2.30;95.23
62694;BME280;48759;52.544;13.418;2022-12-18T01:18:31;102615.44;;;-2.11;93.73
62694;BME280;48759;52.544;13.418;2022-12-18T01:20:58;102623.03;;;-2.19;93.60
62694;BME280;48759;52.544;13.418;2022-12-18T01:23:27;102623.69;;;-2.14;92.64
62694;BME280;48759;52.544;13.418;2022-12-18T01:25:54;102627.16;;;-2.30;93.47
62694;BME280;48759;52.544;13.418;2022-12-18T01:28:22;102636.34;;;-2.16;93.02
62694;BME280;48759;52.544;13.418;2022-12-18T01:30:49;102633.66;;;-2.16;92.75
62694;BME280;48759;52.544;13.418;2022-12-18T01:33:16;102639.22;;;-2.19;92.33
62694;BME280;48759;52.544;13.418;2022-12-18T01:35:43;102634.28;;;-2.28;92.14
62694;BME280;48759;52.544;13.418;2022-12-18T01:38:09;102636.50;;;-2.37;95.52
62694;BME280;48759;52.544;13.418;2022-12-18T01:40:36;102631.53;;;-2.46;94.37
62694;BME280;48759;52.544;13.418;2022-12-18T01:43:03;102638.56;;;-2.42;94.88
62694;BME280;48759;52.544;13.418;2022-12-18T01:45:31;102638.38;;;-2.39;92.78
62694;BME280;48759;52.544;13.418;2022-12-18T01:48:01;102642.66;;;-2.52;93.09
62694;BME280;48759;52.544;13.418;2022-12-18T01:50:31;102639.50;;;-2.43;93.27
62694;BME280;48759;52.544;13.418;2022-12-18T01:53:03;102637.13;;;-2.32;91.79
62694;BME280;48759;52.544;13.418;2022-12-18T01:55:33;102638.25;;;-2.54;91.34
62694;BME280;48759;52.544;13.418;2022-12-18T01:58:02;102630.84;;;-2.68;93.06
62694;BME280;48759;52.544;13.418;2022-12-18T02:00:31;102644.94;;;-2.80;94.93
62694;BME280;48759;52.544;13.418;2022-12-18T02:02:58;102639.31;;;-3.52;100.00
62694;BME280;48759;52.544;13.418;2022-12-18T02:05:34;102643.91;;;-2.59;94.85
62694;BME280;48759;52.544;13.418;2022-12-18T02:08:08;102647.47;;;-2.77;94.64
62694;BME280;48759;52.544;13.418;2022-12-18T02:10:41;102647.91;;;-2.67;93.27
62694;BME280;48759;52.544;13.418;2022-12-18T02:13:13;102651.66;;;-2.53;93.35
62694;BME280;48759;52.544;13.418;2022-12-18T02:15:50;102644.25;;;-2.66;93.27
62694;BME280;48759;52.544;13.418;2022-12-18T02:18:20;102646.38;;;-2.18;90.23
62694;BME280;48759;52.544;13.418;2022-12-18T02:20:54;102645.41;;;-2.00;87.17
62694;BME280;48759;52.544;13.418;2022-12-18T02:23:35;102652.34;;;-2.12;86.81
62694;BME280;48759;52.544;13.418;2022-12-18T02:26:14;102648.00;;;-2.33;88.53
62694;BME280;48759;52.544;13.418;2022-12-18T02:28:46;102652.03;;;-2.42;89.85
62694;BME280;48759;52.544;13.418;2022-12-18T02:31:16;102643.78;;;-2.39;88.97
62694;BME280;48759;52.544;13.418;2022-12-18T02:33:44;102653.13;;;-2.46;90.39
62694;BME280;48759;52.544;13.418;2022-12-18T02:36:12;102661.16;;;-2.63;89.84
62694;BME280;48759;52.544;13.418;2022-12-18T02:38:42;102669.47;;;-2.49;90.12
62694;BME280;48759;52.544;13.418;2022-12-18T02:41:13;102672.88;;;-2.83;91.17
62694;BME280;48759;52.544;13.418;2022-12-18T02:43:42;102667.34;;;-2.61;92.25
62694;BME280;48759;52.544;13.418;2022-12-18T02:46:36;102665.47;;;-2.59;92.03
62694;BME280;48759;52.544;13.418;2022-12-18T02:49:12;102671.78;;;-2.60;92.44
62694;BME280;48759;52.544;13.418;2022-12-18T02:51:48;102672.09;;;-2.66;94.73
62694;BME280;48759;52.544;13.418;2022-12-18T02:54:23;102680.13;;;-2.28;91.09
62694;BME280;48759;52.544;13.418;2022-12-18T02:56:58;102679.94;;;-2.43;93.22
62694;BME280;48759;52.544;13.418;2022-12-18T02:59:34;102674.41;;;-2.58;93.84
62694;BME280;48759;52.544;13.418;2022-12-18T03:02:09;102661.06;;;-2.07;87.54
62694;BME280;48759;52.544;13.418;2022-12-18T03:04:43;102668.84;;;-2.37;87.78
62694;BME280;48759;52.544;13.418;2022-12-18T03:07:16;102666.00;;;-2.34;86.32
62694;BME280;48759;52.544;13.418;2022-12-18T03:09:49;102679.50;;;-2.34;87.84
62694;BME280;48759;52.544;13.418;2022-12-18T03:12:21;102671.91;;;-2.44;87.41
62694;BME280;48759;52.544;13.418;2022-12-18T03:14:54;102679.50;;;-2.34;90.83
62694;BME280;48759;52.544;13.418;2022-12-18T03:17:25;102676.13;;;-2.39;88.48
62694;BME280;48759;52.544;13.418;2022-12-18T03:19:56;102676.19;;;-2.40;89.63
62694;BME280;48759;52.544;13.418;2022-12-18T03:22:27;102674.72;;;-2.64;89.16
62694;BME280;48759;52.544;13.418;2022-12-18T03:24:56;102672.22;;;-2.69;92.22
62694;BME280;48759;52.544;13.418;2022-12-18T03:27:26;102669.47;;;-2.49;90.37
62694;BME280;48759;52.544;13.418;2022-12-18T03:30:00;102669.28;;;-2.27;88.29
62694;BME280;48759;52.544;13.418;2022-12-18T03:32:35;102678.75;;;-2.56;87.49
62694;BME280;48759;52.544;13.418;2022-12-18T03:35:05;102675.38;;;-2.23;87.49
62694;BME280;48759;52.544;13.418;2022-12-18T03:37:33;102680.94;;;-2.26;87.01
62694;BME280;48759;52.544;13.418;2022-12-18T03:40:00;102668.41;;;-2.27;85.63
62694;BME280;48759;52.544;13.418;2022-12-18T03:42:31;102674.41;;;-2.77;89.15
62694;BME280;48759;52.544;13.418;2022-12-18T03:45:03;102670.13;;;-2.81;89.60
62694;BME280;48759;52.544;13.418;2022-12-18T03:47:39;102668.66;;;-2.88;89.77
62694;BME280;48759;52.544;13.418;2022-12-18T03:50:12;102669.59;;;-2.89;92.10
62694;BME280;48759;52.544;13.418;2022-12-18T03:52:45;102680.16;;;-2.85;92.07
62694;BME280;48759;52.544;13.418;2022-12-18T03:55:15;102690.88;;;-2.83;93.38
62694;BME280;48759;52.544;13.418;2022-12-18T03:57:45;102692.91;;;-2.88;95.69
62694;BME280;48759;52.544;13.418;2022-12-18T04:00:16;102691.72;;;-2.64;91.78
62694;BME280;48759;52.544;13.418;2022-12-18T04:02:46;102690.94;;;-3.24;92.74
62694;BME280;48759;52.544;13.418;2022-12-18T04:05:15;102683.47;;;-3.17;92.34
62694;BME280;48759;52.544;13.418;2022-12-18T04:07:43;102679.16;;;-3.21;95.00
62694;BME280;48759;52.544;13.418;2022-12-18T04:10:12;102678.94;;;-3.17;94.04
62694;BME280;48759;52.544;13.418;2022-12-18T04:12:38;102682.69;;;-3.00;92.38
62694;BME280;48759;52.544;13.418;2022-12-18T04:15:07;102681.16;;;-2.87;90.17
62694;BME280;48759;52.544;13.418;2022-12-18T04:17:34;102682.81;;;-3.03;90.88
62694;BME280;48759;52.544;13.418;2022-12-18T04:20:01;102691.00;;;-3.05;93.18
62694;BME280;48759;52.544;13.418;2022-12-18T04:22:28;102693.59;;;-3.03;93.27
62694;BME280;48759;52.544;13.418;2022-12-18T04:24:54;102701.72;;;-3.24;93.07
62694;BME280;48759;52.544;13.418;2022-12-18T04:27:21;102697.25;;;-3.04;95.20
62694;BME280;48759;52.544;13.418;2022-12-18T04:29:48;102700.03;;;-2.87;95.59
62694;BME280;48759;52.544;13.418;2022-12-18T04:32:16;102685.34;;;-2.80;92.82
62694;BME280;48759;52.544;13.418;2022-12-18T04:34:43;102690.28;;;-2.90;92.24
62694;BME280;48759;52.544;13.418;2022-12-18T04:37:09;102700.88;;;-3.05;91.15
62694;BME280;48759;52.544;13.418;2022-12-18T04:39:36;102699.97;;;-2.86;91.07
62694;BME280;48759;52.544;13.418;2022-12-18T04:42:03;102709.94;;;-2.69;89.84
62694;BME280;48759;52.544;13.418;2022-12-18T04:44:29;102708.78;;;-2.82;88.46
62694;BME280;48759;52.544;13.418;2022-12-18T04:46:56;102705.16;;;-2.81;89.26
62694;BME280;48759;52.544;13.418;2022-12-18T04:49:24;102693.03;;;-2.91;88.12
62694;BME280;48759;52.544;13.418;2022-12-18T04:51:51;102698.25;;;-3.07;90.82
62694;BME280;48759;52.544;13.418;2022-12-18T04:54:18;102693.69;;;-2.86;89.12
62694;BME280;48759;52.544;13.418;2022-12-18T04:56:46;102696.38;;;-2.86;89.45
62694;BME280;48759;52.544;13.418;2022-12-18T04:59:13;102691.59;;;-2.98;91.46
62694;BME280;48759;52.544;13.418;2022-12-18T05:01:40;102698.00;;;-2.63;88.70
62694;BME280;48759;52.544;13.418;2022-12-18T05:04:06;102706.81;;;-2.60;87.54
62694;BME280;48759;52.544;13.418;2022-12-18T05:06:34;102707.28;;;-2.50;85.37
62694;BME280;48759;52.544;13.418;2022-12-18T05:09:01;102714.88;;;-2.22;83.19
62694;BME280;48759;52.544;13.418;2022-12-18T05:11:28;102712.00;;;-2.37;84.07
62694;BME280;48759;52.544;13.418;2022-12-18T05:13:54;102719.84;;;-2.32;82.84
62694;BME280;48759;52.544;13.418;2022-12-18T05:16:21;102722.63;;;-2.34;82.26
62694;BME280;48759;52.544;13.418;2022-12-18T05:18:48;102718.25;;;-2.74;85.31
62694;BME280;48759;52.544;13.418;2022-12-18T05:21:15;102731.81;;;-2.75;84.74
62694;BME280;48759;52.544;13.418;2022-12-18T05:23:43;102734.16;;;-2.67;83.70
62694;BME280;48759;52.544;13.418;2022-12-18T05:26:15;102733.25;;;-2.68;82.87
62694;BME280;48759;52.544;13.418;2022-12-18T05:28:42;102741.88;;;-2.60;82.68
62694;BME280;48759;52.544;13.418;2022-12-18T05:31:09;102746.50;;;-2.63;82.70
62694;BME280;48759;52.544;13.418;2022-12-18T05:33:36;102758.09;;;-2.80;84.07
62694;BME280;48759;52.544;13.418;2022-12-18T05:36:06;102750.28;;;-2.86;84.06
62694;BME280;48759;52.544;13.418;2022-12-18T05:38:35;102738.44;;;-3.02;83.63
62694;BME280;48759;52.544;13.418;2022-12-18T05:41:04;102744.69;;;-3.02;85.48
62694;BME280;48759;52.544;13.418;2022-12-18T05:43:34;102755.88;;;-2.91;85.16
62694;BME280;48759;52.544;13.418;2022-12-18T05:46:05;102741.88;;;-3.19;86.39
62694;BME280;48759;52.544;13.418;2022-12-18T05:48:32;102751.34;;;-3.29;87.47
62694;BME280;48759;52.544;13.418;2022-12-18T05:51:04;102755.13;;;-2.94;87.52
62694;BME280;48759;52.544;13.418;2022-12-18T05:53:32;102759.06;;;-3.22;89.95
62694;BME280;48759;52.544;13.418;2022-12-18T05:56:00;102757.28;;;-2.82;87.07
62694;BME280;48759;52.544;13.418;2022-12-18T05:58:30;102750.44;;;-2.89;86.25
62694;BME280;48759;52.544;13.418;2022-12-18T06:00:57;102750.28;;;-2.86;86.73
62694;BME280;48759;52.544;13.418;2022-12-18T06:03:24;102757.13;;;-2.79;85.31
62694;BME280;48759;52.544;13.418;2022-12-18T06:05:50;102758.69;;;-2.74;85.50
62694;BME280;48759;52.544;13.418;2022-12-18T06:08:17;102767.00;;;-2.98;88.10
62694;BME280;48759;52.544;13.418;2022-12-18T06:10:50;102773.59;;;-2.85;87.83
62694;BME280;48759;52.544;13.418;2022-12-18T06:13:18;102773.50;;;-2.45;84.26
62694;BME280;48759;52.544;13.418;2022-12-18T06:15:46;102774.22;;;-2.60;85.46
62694;BME280;48759;52.544;13.418;2022-12-18T06:18:13;102769.13;;;-2.66;85.83
62694;BME280;48759;52.544;13.418;2022-12-18T06:20:39;102775.66;;;-2.53;84.98
62694;BME280;48759;52.544;13.418;2022-12-18T06:23:22;102779.47;;;-2.57;85.58
62694;BME280;48759;52.544;13.418;2022-12-18T06:25:48;102773.09;;;-2.56;86.06
62694;BME280;48759;52.544;13.418;2022-12-18T06:28:15;102773.63;;;-2.48;85.73
62694;BME280;48759;52.544;13.418;2022-12-18T06:30:43;102779.66;;;-2.61;85.35
62694;BME280;48759;52.544;13.418;2022-12-18T06:33:11;102788.91;;;-2.67;87.13
62694;BME280;48759;52.544;13.418;2022-12-18T06:35:38;102792.59;;;-2.49;86.63
62694;BME280;48759;52.544;13.418;2022-12-18T06:38:04;102794.41;;;-2.50;86.37
62694;BME280;48759;52.544;13.418;2022-12-18T06:40:32;102804.69;;;-2.39;83.88
62694;BME280;48759;52.544;13.418;2022-12-18T06:42:59;102802.47;;;-2.69;86.93
62694;BME280;48759;52.544;13.418;2022-12-18T06:45:25;102820.84;;;-2.58;86.33
62694;BME280;48759;52.544;13.418;2022-12-18T06:47:53;102810.59;;;-2.70;86.90
62694;BME280;48759;52.544;13.418;2022-12-18T06:50:21;102806.66;;;-2.82;88.10
62694;BME280;48759;52.544;13.418;2022-12-18T06:52:48;102803.22;;;-2.65;86.71
62694;BME280;48759;52.544;13.418;2022-12-18T06:55:14;102811.53;;;-2.51;85.95
62694;BME280;48759;52.544;13.418;2022-12-18T06:57:41;102826.66;;;-2.48;84.94
62694;BME280;48759;52.544;13.418;2022-12-18T07:00:09;102832.63;;;-2.60;86.95
62694;BME280;48759;52.544;13.418;2022-12-18T07:02:36;102838.03;;;-2.60;89.89
62694;BME280;48759;52.544;13.418;2022-12-18T07:05:03;102826.25;;;-2.58;87.34
62694;BME280;48759;52.544;13.418;2022-12-18T07:07:33;102819.63;;;-2.51;86.95
62694;BME280;48759;52.544;13.418;2022-12-18T07:10:00;102802.16;;;-2.81;90.78
62694;BME280;48759;52.544;13.418;2022-12-18T07:12:26;102806.59;;;-2.80;93.16
62694;BME280;48759;52.544;13.418;2022-12-18T07:14:53;102814.56;;;-2.97;94.73
62694;BME280;48759;52.544;13.418;2022-12-18T07:17:20;102820.94;;;-3.20;95.40
62694;BME280;48759;52.544;13.418;2022-12-18T07:19:47;102821.53;;;-2.73;96.82
62694;BME280;48759;52.544;13.418;2022-12-18T07:22:14;102826.56;;;-3.47;99.56
62694;BME280;48759;52.544;13.418;2022-12-18T07:24:43;102829.41;;;-3.09;99.34
62694;BME280;48759;52.544;13.418;2022-12-18T07:27:09;102833.41;;;-2.97;97.85
62694;BME280;48759;52.544;13.418;2022-12-18T07:29:36;102835.22;;;-2.78;94.99
62694;BME280;48759;52.544;13.418;2022-12-18T07:32:03;102822.56;;;-3.16;96.39
62694;BME280;48759;52.544;13.418;2022-12-18T07:34:30;102821.00;;;-3.01;94.79
62694;BME280;48759;52.544;13.418;2022-12-18T07:36:57;102824.50;;;-2.79;93.20
62694;BME280;48759;52.544;13.418;2022-12-18T07:39:24;102821.94;;;-3.02;92.51
62694;BME280;48759;52.544;13.418;2022-12-18T07:41:52;102824.72;;;-3.04;92.13
62694;BME280;48759;52.544;13.418;2022-12-18T07:44:33;102830.03;;;-3.02;90.97
62694;BME280;48759;52.544;13.418;2022-12-18T07:47:00;102833.00;;;-3.09;94.12
62694;BME280;48759;52.544;13.418;2022-12-18T07:49:27;102828.41;;;-3.07;92.43
62694;BME280;48759;52.544;13.418;2022-12-18T07:51:55;102836.50;;;-2.86;91.93
62694;BME280;48759;52.544;13.418;2022-12-18T07:54:22;102826.78;;;-2.70;89.44
62694;BME280;48759;52.544;13.418;2022-12-18T07:56:48;102821.53;;;-2.73;88.04
62694;BME280;48759;52.544;13.418;2022-12-18T07:59:16;102817.09;;;-2.94;90.31
62694;BME280;48759;52.544;13.418;2022-12-18T08:01:43;102823.97;;;-2.67;90.13
62694;BME280;48759;52.544;13.418;2022-12-18T08:04:10;102839.44;;;-2.72;90.49
62694;BME280;48759;52.544;13.418;2022-12-18T08:06:46;102838.72;;;-2.37;86.49
62694;BME280;48759;52.544;13.418;2022-12-18T08:09:16;102842.53;;;-2.41;85.05
62694;BME280;48759;52.544;13.418;2022-12-18T08:11:44;102839.66;;;-2.38;83.89
62694;BME280;48759;52.544;13.418;2022-12-18T08:14:11;102839.81;;;-2.41;82.54
62694;BME280;48759;52.544;13.418;2022-12-18T08:16:40;102839.66;;;-2.38;83.94
62694;BME280;48759;52.544;13.418;2022-12-18T08:19:21;102836.31;;;-2.43;83.66
62694;BME280;48759;52.544;13.418;2022-12-18T08:21:47;102846.53;;;-2.12;81.44
62694;BME280;48759;52.544;13.418;2022-12-18T08:24:17;102842.38;;;-2.00;80.99
62694;BME280;48759;52.544;13.418;2022-12-18T08:26:57;102848.31;;;-2.11;81.94
62694;BME280;48759;52.544;13.418;2022-12-18T08:29:24;102845.25;;;-2.03;80.18
62694;BME280;48759;52.544;13.418;2022-12-18T08:31:52;102852.25;;;-2.18;80.46
62694;BME280;48759;52.544;13.418;2022-12-18T08:34:18;102853.03;;;-1.97;79.86
62694;BME280;48759;52.544;13.418;2022-12-18T08:36:45;102850.72;;;-1.86;79.80
62694;BME280;48759;52.544;13.418;2022-12-18T08:39:12;102854.56;;;-2.10;79.81
62694;BME280;48759;52.544;13.418;2022-12-18T08:41:39;102860.69;;;-2.07;79.24
62694;BME280;48759;52.544;13.418;2022-12-18T08:44:07;102864.56;;;-2.12;80.32
62694;BME280;48759;52.544;13.418;2022-12-18T08:46:52;102864.56;;;-2.12;80.14
62694;BME280;48759;52.544;13.418;2022-12-18T08:49:19;102858.78;;;-2.23;79.71
62694;BME280;48759;52.544;13.418;2022-12-18T08:51:45;102861.81;;;-2.31;81.50
62694;BME280;48759;52.544;13.418;2022-12-18T08:54:13;102867.69;;;-1.84;80.23
62694;BME280;48759;52.544;13.418;2022-12-18T08:56:40;102872.13;;;-1.83;80.62
62694;BME280;48759;52.544;13.418;2022-12-18T08:59:08;102885.53;;;-2.00;78.35
62694;BME280;48759;52.544;13.418;2022-12-18T09:01:35;102889.28;;;-1.84;76.84
62694;BME280;48759;52.544;13.418;2022-12-18T09:04:04;102882.44;;;-1.72;76.40
62694;BME280;48759;52.544;13.418;2022-12-18T09:06:30;102877.97;;;-1.55;75.59
62694;BME280;48759;52.544;13.418;2022-12-18T09:09:06;102875.34;;;-1.75;74.20
62694;BME280;48759;52.544;13.418;2022-12-18T09:11:33;102883.81;;;-1.82;74.83
62694;BME280;48759;52.544;13.418;2022-12-18T09:14:01;102896.38;;;-1.45;74.45
62694;BME280;48759;52.544;13.418;2022-12-18T09:16:28;102891.75;;;-1.61;74.03
62694;BME280;48759;52.544;13.418;2022-12-18T09:18:57;102892.59;;;-1.41;74.19
62694;BME280;48759;52.544;13.418;2022-12-18T09:21:28;102891.78;;;-1.43;73.22
62694;BME280;48759;52.544;13.418;2022-12-18T09:23:56;102900.56;;;-1.21;73.07
62694;BME280;48759;52.544;13.418;2022-12-18T09:26:24;102897.00;;;-1.22;86.07
62694;BME280;48759;52.544;13.418;2022-12-18T09:28:51;102897.53;;;-0.79;100.00
62694;BME280;48759;52.544;13.418;2022-12-18T09:31:19;102906.56;;;-0.46;100.00
62694;BME280;48759;52.544;13.418;2022-12-18T09:33:47;102896.47;;;-0.59;93.24
62694;BME280;48759;52.544;13.418;2022-12-18T09:36:15;102903.00;;;-0.46;91.59
62694;BME280;48759;52.544;13.418;2022-12-18T09:38:44;102899.81;;;-0.71;80.55
62694;BME280;48759;52.544;13.418;2022-12-18T09:41:22;102890.59;;;-0.67;78.15
62694;BME280;48759;52.544;13.418;2022-12-18T09:43:58;102884.09;;;-0.81;76.53
62694;BME280;48759;52.544;13.418;2022-12-18T09:46:29;102874.22;;;-0.82;75.59
62694;BME280;48759;52.544;13.418;2022-12-18T09:49:00;102878.06;;;-0.68;73.50
62694;BME280;48759;52.544;13.418;2022-12-18T09:51:33;102870.81;;;-1.02;74.44
62694;BME280;48759;52.544;13.418;2022-12-18T09:54:04;102869.44;;;-1.11;75.40
62694;BME280;48759;52.544;13.418;2022-12-18T09:56:39;102869.13;;;-0.88;75.33
62694;BME280;48759;52.544;13.418;2022-12-18T09:59:16;102858.47;;;-0.73;73.49
62694;BME280;48759;52.544;13.418;2022-12-18T10:01:44;102856.97;;;-0.79;75.65
62694;BME280;48759;52.544;13.418;2022-12-18T10:04:11;102839.56;;;-0.91;76.82
62694;BME280;48759;52.544;13.418;2022-12-18T10:06:43;102837.94;;;-0.60;76.11
62694;BME280;48759;52.544;13.418;2022-12-18T10:09:20;102834.31;;;-0.94;76.77
62694;BME280;48759;52.544;13.418;2022-12-18T10:11:57;102827.63;;;-1.04;78.85
62694;BME280;48759;52.544;13.418;2022-12-18T10:14:30;102835.59;;;-0.84;78.61
62694;BME280;48759;52.544;13.418;2022-12-18T10:17:06;102835.41;;;-0.98;80.50
62694;BME280;48759;52.544;13.418;2022-12-18T10:19:40;102840.13;;;-0.84;81.40
62694;BME280;48759;52.544;13.418;2022-12-18T10:22:21;102838.31;;;-1.01;80.96
62694;BME280;48759;52.544;13.418;2022-12-18T10:24:54;102836.78;;;-0.89;81.39
62694;BME280;48759;52.544;13.418;2022-12-18T10:27:24;102832.09;;;-1.20;83.11
62694;BME280;48759;52.544;13.418;2022-12-18T10:29:52;102837.56;;;-1.04;82.40
62694;BME280;48759;52.544;13.418;2022-12-18T10:32:22;102836.63;;;-0.86;81.58
62694;BME280;48759;52.544;13.418;2022-12-18T10:34:54;102826.03;;;-0.91;79.98
62694;BME280;48759;52.544;13.418;2022-12-18T10:37:23;102820.94;;;-0.80;80.29
62694;BME280;48759;52.544;13.418;2022-12-18T10:40:11;102820.91;;;-0.45;78.34
62694;BME280;48759;52.544;13.418;2022-12-18T10:42:38;102815.78;;;-0.51;77.93
62694;BME280;48759;52.544;13.418;2022-12-18T10:45:10;102810.66;;;0.09;75.73
62694;BME280;48759;52.544;13.418;2022-12-18T10:47:42;102819.28;;;-0.01;74.81
62694;BME280;48759;52.544;13.418;2022-12-18T10:50:18;102809.78;;;0.24;74.17
62694;BME280;48759;52.544;13.418;2022-12-18T10:52:53;102803.94;;;0.16;80.56
62694;BME280;48759;52.544;13.418;2022-12-18T10:55:22;102791.91;;;0.51;75.52
62694;BME280;48759;52.544;13.418;2022-12-18T10:57:48;102797.75;;;0.44;74.52
62694;BME280;48759;52.544;13.418;2022-12-18T11:00:22;102787.25;;;0.08;75.82
62694;BME280;48759;52.544;13.418;2022-12-18T11:02:50;102791.06;;;0.03;76.10
62694;BME280;48759;52.544;13.418;2022-12-18T11:05:26;102785.47;;;0.22;76.86
62694;BME280;48759;52.544;13.418;2022-12-18T11:07:53;102780.25;;;0.03;77.64
62694;BME280;48759;52.544;13.418;2022-12-18T11:10:25;102791.41;;;0.29;75.88
62694;BME280;48759;52.544;13.418;2022-12-18T11:12:53;102795.34;;;0.39;75.56
62694;BME280;48759;52.544;13.418;2022-12-18T11:15:23;102784.13;;;0.45;75.42
62694;BME280;48759;52.544;13.418;2022-12-18T11:17:52;102779.91;;;0.25;75.25
62694;BME280;48759;52.544;13.418;2022-12-18T11:20:26;102790.09;;;0.20;75.60
62694;BME280;48759;52.544;13.418;2022-12-18T11:22:57;102784.09;;;-0.01;77.01
62694;BME280;48759;52.544;13.418;2022-12-18T11:25:26;102789.84;;;0.25;76.73
62694;BME280;48759;52.544;13.418;2022-12-18T11:27:55;102788.81;;;0.12;75.79
62694;BME280;48759;52.544;13.418;2022-12-18T11:30:24;102792.22;;;0.31;75.02
62694;BME280;48759;52.544;13.418;2022-12-18T11:32:54;102782.59;;;0.41;74.06
62694;BME280;48759;52.544;13.418;2022-12-18T11:35:30;102790.03;;;0.22;75.15
62694;BME280;48759;52.544;13.418;2022-12-18T11:38:04;102784.78;;;0.03;74.93
62694;BME280;48759;52.544;13.418;2022-12-18T11:40:36;102791.94;;;0.04;74.92
62694;BME280;48759;52.544;13.418;2022-12-18T11:43:07;102785.78;;;0.02;76.31
62694;BME280;48759;52.544;13.418;2022-12-18T11:45:41;102784.34;;;0.42;74.40
62694;BME280;48759;52.544;13.418;2022-12-18T11:48:14;102798.44;;;0.17;74.09
62694;BME280;48759;52.544;13.418;2022-12-18T11:50:47;102803.44;;;0.55;73.52
62694;BME280;48759;52.544;13.418;2022-12-18T11:53:18;102803.75;;;0.19;74.80
62694;BME280;48759;52.544;13.418;2022-12-18T11:56:03;102819.03;;;0.20;74.97
62694;BME280;48759;52.544;13.418;2022-12-18T11:58:45;102810.66;;;0.09;74.65
62694;BME280;48759;52.544;13.418;2022-12-18T12:01:23;102816.59;;;0.15;75.37
62694;BME280;48759;52.544;13.418;2022-12-18T12:07:03;102824.78;;;-0.18;75.97
62694;BME280;48759;52.544;13.418;2022-12-18T12:09:39;102822.63;;;-0.44;79.21
62694;BME280;48759;52.544;13.418;2022-12-18T12:12:26;102832.66;;;0.03;77.70
62694;BME280;48759;52.544;13.418;2022-12-18T12:14:59;102833.19;;;-0.07;77.27
62694;BME280;48759;52.544;13.418;2022-12-18T12:17:36;102833.78;;;-0.02;77.31
62694;BME280;48759;52.544;13.418;2022-12-18T12:20:10;102827.38;;;-0.32;77.78
62694;BME280;48759;52.544;13.418;2022-12-18T12:22:49;102829.28;;;-0.34;79.76
62694;BME280;48759;52.544;13.418;2022-12-18T12:25:30;102826.50;;;-0.32;80.79
62694;BME280;48759;52.544;13.418;2022-12-18T12:28:13;102835.25;;;-0.12;80.31
62694;BME280;48759;52.544;13.418;2022-12-18T12:30:52;102828.72;;;0.24;77.64
62694;BME280;48759;52.544;13.418;2022-12-18T12:33:34;102838.25;;;0.31;77.27
62694;BME280;48759;52.544;13.418;2022-12-18T12:36:09;102838.97;;;0.19;76.17
62694;BME280;48759;52.544;13.418;2022-12-18T12:38:42;102848.03;;;0.18;76.85
62694;BME280;48759;52.544;13.418;2022-12-18T12:41:20;102846.81;;;0.08;75.98
62694;BME280;48759;52.544;13.418;2022-12-18T12:44:12;102846.63;;;-0.05;76.82
62694;BME280;48759;52.544;13.418;2022-12-18T12:46:42;102837.53;;;0.27;75.73
62694;BME280;48759;52.544;13.418;2022-12-18T12:49:12;102841.38;;;0.08;75.71
62694;BME280;48759;52.544;13.418;2022-12-18T12:51:43;102842.28;;;0.24;74.88
62694;BME280;48759;52.544;13.418;2022-12-18T12:54:16;102833.78;;;-0.02;76.17
62694;BME280;48759;52.544;13.418;2022-12-18T12:58:11;102813.38;;;0.09;75.35
62694;BME280;48759;52.544;13.418;2022-12-18T13:00:08;102805.59;;;0.03;74.66
62694;BME280;48759;52.544;13.418;2022-12-18T13:02:42;102795.09;;;-0.19;78.00